D/T METAR WX W/DIR W/SPE G/SPE TEMP DEWP
16/01/19 03:20 EGCC 160320Z AUTO 21008KT 9999 BKN040 08/06 Q1004 NOSIG SSW (210°) 9.2mph 8°C 6°C
16/01/19 02:50 EGCC 160250Z AUTO 20007KT 9999 BKN033 08/06 Q1005 NOSIG SSW (200°) 8.1mph 8°C 6°C
16/01/19 02:20 EGCC 160220Z AUTO 21008KT 180V240 9999 SCT027 OVC033 08/06 Q1005 SSW (210°) 9.2mph 8°C 6°C
16/01/19 01:50 EGCC 160150Z AUTO 21007KT 9999 FEW013 BKN019 BKN025 08/06 Q1006 SSW (210°) 8.1mph 8°C 6°C
16/01/19 01:20 EGCC 160120Z AUTO 20008KT 180V240 9999 BKN022 BKN029 OVC043 08/06 Q1006 NOSIG SSW (200°) 9.2mph 8°C 6°C
16/01/19 00:50 EGCC 160050Z AUTO 21008KT 170V230 9999 BKN025 BKN029 OVC039 08/06 Q1007 NOSIG SSW (210°) 9.2mph 8°C 6°C
16/01/19 00:20 EGCC 160020Z AUTO 20008KT 9999 BKN025 OVC038 08/05 Q1007 NOSIG SSW (200°) 9.2mph 8°C 5°C
15/01/19 23:50 EGCC 152350Z AUTO 19005KT 150V220 9999 -RA BKN025 08/05 Q1008 NOSIG -RA S (190°) 5.8mph 8°C 5°C
15/01/19 23:20 EGCC 152320Z AUTO 19007KT 150V220 9999 -RA BKN024 08/05 Q1008 NOSIG -RA S (190°) 8.1mph 8°C 5°C
15/01/19 22:50 EGCC 152250Z AUTO 21007KT 9999 BKN026 08/05 Q1009 NOSIG SSW (210°) 8.1mph 8°C 5°C
15/01/19 22:20 EGCC 152220Z AUTO 21008KT 9999 BKN029 BKN035 08/05 Q1009 NOSIG SSW (210°) 9.2mph 8°C 5°C
15/01/19 21:50 EGCC 152150Z AUTO VRB03KT 9999 SCT020 SCT028 BKN034 07/05 Q1009 NOSIG N (0°) 3.5mph 7°C 5°C
15/01/19 21:20 EGCC 152120Z AUTO 20008KT 150V220 9999 SCT024 08/05 Q1010 NOSIG SSW (200°) 9.2mph 8°C 5°C
15/01/19 20:50 EGCC 152050Z AUTO 20007KT 9999 BKN020 08/05 Q1010 NOSIG SSW (200°) 8.1mph 8°C 5°C
15/01/19 20:20 EGCC 152020Z AUTO 20006KT 9999 SCT022 OVC026 08/05 Q1010 NOSIG SSW (200°) 6.9mph 8°C 5°C
15/01/19 19:50 EGCC 151950Z 20006KT 9999 BKN025 08/05 Q1011 NOSIG SSW (200°) 6.9mph 8°C 5°C
15/01/19 19:20 EGCC 151920Z 20005KT 9999 VCSH SCT016 SCT037 08/05 Q1011 VCSH SSW (200°) 5.8mph 8°C 5°C
15/01/19 18:50 EGCC 151850Z AUTO 21007KT 150V230 9999 BKN024 OVC031 08/05 Q1012 NOSIG SSW (210°) 8.1mph 8°C 5°C
15/01/19 18:20 EGCC 151820Z AUTO 21005KT 9999 BKN023 OVC029 08/05 Q1012 NOSIG SSW (210°) 5.8mph 8°C 5°C
15/01/19 17:50 EGCC 151750Z AUTO 20005KT 170V230 9999 SCT024 BKN030 08/05 Q1012 NOSIG SSW (200°) 5.8mph 8°C 5°C
15/01/19 17:20 EGCC 151720Z AUTO 20005KT 9999 BKN024 BKN030 08/05 Q1012 NOSIG SSW (200°) 5.8mph 8°C 5°C
15/01/19 16:50 EGCC 151650Z AUTO 22007KT 9999 BKN025 OVC030 08/05 Q1013 NOSIG SW (220°) 8.1mph 8°C 5°C
15/01/19 16:20 EGCC 151620Z AUTO 20004KT 150V230 9999 OVC026 08/05 Q1013 NOSIG SSW (200°) 4.6mph 8°C 5°C
15/01/19 15:50 EGCC 151550Z AUTO 22005KT 9999 BKN028 OVC039 08/05 Q1013 SW (220°) 5.8mph 8°C 5°C
15/01/19 15:20 EGCC 151520Z AUTO 24007KT 9999 BKN027 OVC034 09/05 Q1014 WSW (240°) 8.1mph 9°C 5°C
15/01/19 14:50 EGCC 151450Z AUTO 24007KT 9999 OVC027 09/04 Q1014 NOSIG WSW (240°) 8.1mph 9°C 4°C
15/01/19 14:20 EGCC 151420Z AUTO 25007KT 9999 BKN034 OVC040 09/04 Q1014 NOSIG WSW (250°) 8.1mph 9°C 4°C
15/01/19 13:50 EGCC 151350Z AUTO 23009KT 9999 OVC039 09/04 Q1014 NOSIG SW (230°) 10.4mph 9°C 4°C
15/01/19 13:20 EGCC 151320Z AUTO 23009KT 9999 OVC042 09/04 Q1015 NOSIG SW (230°) 10.4mph 9°C 4°C
15/01/19 12:50 EGCC 151250Z AUTO 23009KT 9999 OVC042 09/04 Q1015 SW (230°) 10.4mph 9°C 4°C
15/01/19 12:20 EGCC 151220Z AUTO 23009KT 9999 OVC040 09/04 Q1016 NOSIG SW (230°) 10.4mph 9°C 4°C
15/01/19 11:50 EGCC 151150Z AUTO 23008KT 9999 OVC039 09/04 Q1016 NOSIG SW (230°) 9.2mph 9°C 4°C
15/01/19 11:20 EGCC 151120Z AUTO 23009KT 9999 OVC041 08/04 Q1016 NOSIG SW (230°) 10.4mph 8°C 4°C
15/01/19 10:50 EGCC 151050Z AUTO 24009KT 9999 OVC046 08/04 Q1017 NOSIG WSW (240°) 10.4mph 8°C 4°C
15/01/19 10:20 EGCC 151020Z AUTO 22007KT 180V240 9999 OVC049 08/04 Q1017 NOSIG SW (220°) 8.1mph 8°C 4°C
15/01/19 09:50 EGCC 150950Z AUTO 21004KT 170V230 9999 NCD 07/04 Q1017 NOSIG SSW (210°) 4.6mph 7°C 4°C
15/01/19 09:20 EGCC 150920Z AUTO 19005KT 150V220 9999 NCD 07/04 Q1017 NOSIG S (190°) 5.8mph 7°C 4°C
15/01/19 08:50 EGCC 150850Z AUTO 21005KT 170V230 9999 NCD 07/04 Q1017 NOSIG SSW (210°) 5.8mph 7°C 4°C
15/01/19 08:20 EGCC 150820Z AUTO 21004KT 9999 NCD 07/04 Q1017 NOSIG SSW (210°) 4.6mph 7°C 4°C
15/01/19 07:50 EGCC 150750Z AUTO 22004KT 9999 NCD 07/04 Q1016 NOSIG SW (220°) 4.6mph 7°C 4°C
15/01/19 07:20 EGCC 150720Z AUTO 22006KT 9999 NCD 07/04 Q1016 NOSIG SW (220°) 6.9mph 7°C 4°C
15/01/19 06:50 EGCC 150650Z AUTO 19004KT 150V220 9999 OVC046 07/04 Q1016 NOSIG S (190°) 4.6mph 7°C 4°C
15/01/19 06:20 EGCC 150620Z AUTO VRB03KT 9999 OVC046 07/04 Q1017 NOSIG N (0°) 3.5mph 7°C 4°C
15/01/19 05:50 EGCC 150550Z AUTO 21005KT 9999 OVC045 07/04 Q1017 NOSIG SSW (210°) 5.8mph 7°C 4°C
15/01/19 05:20 EGCC 150520Z AUTO 21004KT 9999 FEW033 OVC040 07/04 Q1017 NOSIG SSW (210°) 4.6mph 7°C 4°C
15/01/19 04:50 EGCC 150450Z AUTO 21005KT 180V240 9999 BKN032 OVC043 06/04 Q1017 SSW (210°) 5.8mph 6°C 4°C
15/01/19 04:20 EGCC 150420Z AUTO 20005KT 9999 FEW025 OVC035 06/04 Q1017 NOSIG SSW (200°) 5.8mph 6°C 4°C
15/01/19 03:50 EGCC 150350Z AUTO 18005KT 150V220 9999 OVC028 06/04 Q1018 NOSIG S (180°) 5.8mph 6°C 4°C
15/01/19 03:20 EGCC 150320Z AUTO 19005KT 150V220 9999 SCT017 SCT024 OVC031 06/04 Q1018 NOSIG S (190°) 5.8mph 6°C 4°C
15/01/19 02:50 EGCC 150250Z AUTO 20005KT 130V220 9999 FEW017 SCT024 OVC032 06/04 Q1019 NOSIG SSW (200°) 5.8mph 6°C 4°C
15/01/19 02:20 EGCC 150220Z AUTO 20005KT 150V230 9999 FEW021 OVC034 05/04 Q1019 NOSIG SSW (200°) 5.8mph 5°C 4°C
15/01/19 01:50 EGCC 150150Z AUTO 21006KT 180V240 9999 SCT015 OVC035 05/03 Q1019 NOSIG SSW (210°) 6.9mph 5°C 3°C
15/01/19 01:20 EGCC 150120Z AUTO 20006KT 160V230 5000 -DZ SCT012 BKN016 BKN021 06/03 Q1020 NOSIG -DZ SSW (200°) 6.9mph 6°C 3°C
15/01/19 00:50 EGCC 150050Z AUTO 21005KT 9999 BKN020 BKN024 BKN035 06/03 Q1020 NOSIG SSW (210°) 5.8mph 6°C 3°C
15/01/19 00:20 EGCC 150020Z AUTO 21005KT 9999 -RA BKN024 BKN030 OVC040 06/03 Q1020 NOSIG -RA SSW (210°) 5.8mph 6°C 3°C
14/01/19 23:50 EGCC 142350Z AUTO 22006KT 9999 SCT021 OVC042 06/03 Q1020 NOSIG SW (220°) 6.9mph 6°C 3°C
14/01/19 23:20 EGCC 142320Z AUTO 22006KT 9999 OVC021 06/02 Q1020 NOSIG SW (220°) 6.9mph 6°C 2°C
14/01/19 22:50 EGCC 142250Z AUTO 22005KT 180V240 9999 BKN019 OVC025 06/02 Q1021 NOSIG SW (220°) 5.8mph 6°C 2°C
14/01/19 22:20 EGCC 142220Z AUTO 23007KT 9999 BKN020 05/02 Q1021 NOSIG SW (230°) 8.1mph 5°C 2°C
14/01/19 21:50 EGCC 142150Z AUTO 22007KT 9999 BKN035 05/02 Q1021 NOSIG SW (220°) 8.1mph 5°C 2°C
14/01/19 21:20 EGCC 142120Z AUTO 22005KT 9999 FEW028 BKN038 05/02 Q1021 NOSIG SW (220°) 5.8mph 5°C 2°C
14/01/19 20:50 EGCC 142050Z AUTO 22005KT 9999 BKN027 05/02 Q1021 NOSIG SW (220°) 5.8mph 5°C 2°C
14/01/19 20:20 EGCC 142020Z AUTO VRB03KT 9999 FEW036 05/02 Q1021 N (0°) 3.5mph 5°C 2°C
14/01/19 19:50 EGCC 141950Z AUTO 24007KT 9999 BKN035 06/04 Q1021 WSW (240°) 8.1mph 6°C 4°C
14/01/19 19:20 EGCC 141920Z AUTO 24006KT 9999 FEW022 BKN039 06/03 Q1021 NOSIG WSW (240°) 6.9mph 6°C 3°C
14/01/19 18:50 EGCC 141850Z AUTO 25006KT 9999 BKN044 06/03 Q1021 NOSIG WSW (250°) 6.9mph 6°C 3°C
14/01/19 18:20 EGCC 141820Z AUTO 25007KT 9999 BKN043 07/03 Q1022 NOSIG WSW (250°) 8.1mph 7°C 3°C
14/01/19 17:50 EGCC 141750Z AUTO 26007KT 9999 FEW020 SCT042 07/04 Q1021 NOSIG W (260°) 8.1mph 7°C 4°C
14/01/19 17:20 EGCC 141720Z AUTO 26005KT 9999 FEW019 OVC043 07/04 Q1021 NOSIG W (260°) 5.8mph 7°C 4°C
14/01/19 16:20 EGCC 141620Z AUTO 27007KT 9999 OVC034 07/03 Q1021 NOSIG W (270°) 8.1mph 7°C 3°C
14/01/19 15:50 EGCC 141550Z AUTO 28010KT 9999 OVC045 07/03 Q1021 NOSIG W (280°) 11.5mph 7°C 3°C
14/01/19 15:20 EGCC 141520Z AUTO 29008KT 9999 SCT029 BKN034 OVC043 08/03 Q1021 NOSIG WNW (290°) 9.2mph 8°C 3°C
14/01/19 14:50 EGCC 141450Z AUTO 29009KT 9999 FEW022 OVC045 08/03 Q1021 NOSIG WNW (290°) 10.4mph 8°C 3°C
14/01/19 13:50 EGCC 141350Z AUTO 29009KT 9999 FEW022 SCT031 BKN038 08/03 Q1021 NOSIG WNW (290°) 10.4mph 8°C 3°C
14/01/19 13:20 EGCC 141320Z AUTO 30011KT 9999 SCT020 SCT032 BKN039 08/03 Q1021 WNW (300°) 12.7mph 8°C 3°C
14/01/19 12:50 EGCC 141250Z AUTO 30011KT 9999 BKN018 OVC045 08/04 Q1021 WNW (300°) 12.7mph 8°C 4°C
14/01/19 12:20 EGCC 141220Z AUTO 29008KT 9999 BKN017 OVC048 08/03 Q1021 NOSIG WNW (290°) 9.2mph 8°C 3°C
14/01/19 11:50 EGCC 141150Z AUTO 31009KT 9999 BKN017/// BKN022/// OVC045/// //////TCU 08/04 Q1021 NOSIG NW (310°) 10.4mph 8°C 4°C
14/01/19 10:50 EGCC 141050Z AUTO 30007KT 270V330 9999 BKN018 BKN024 OVC045 07/03 Q1021 NOSIG WNW (300°) 8.1mph 7°C 3°C
14/01/19 10:20 EGCC 141020Z AUTO 28009KT 9999 SCT017 BKN046 07/03 Q1021 TEMPO SHRA W (280°) 10.4mph 7°C 3°C
14/01/19 09:50 EGCC 140950Z AUTO 30010KT 9999 BKN042 07/03 Q1020 TEMPO SHRA WNW (300°) 11.5mph 7°C 3°C
14/01/19 09:20 EGCC 140920Z AUTO 28009KT 9999 SCT022 SCT036 BKN042 06/03 Q1020 TEMPO SHRA W (280°) 10.4mph 6°C 3°C
14/01/19 08:50 EGCC 140850Z AUTO 29010KT 9999 NCD 06/03 Q1020 NOSIG WNW (290°) 11.5mph 6°C 3°C
14/01/19 08:20 EGCC 140820Z AUTO 29012KT 9999 SCT022 SCT029 06/03 Q1019 NOSIG WNW (290°) 13.8mph 6°C 3°C
14/01/19 07:50 EGCC 140750Z AUTO 30012KT 9999 FEW018 SCT029 BKN041 07/03 Q1019 NOSIG WNW (300°) 13.8mph 7°C 3°C
14/01/19 07:20 EGCC 140720Z AUTO 30010KT 9999 SCT017 SCT026 BKN032 06/03 Q1019 NOSIG WNW (300°) 11.5mph 6°C 3°C
14/01/19 06:50 EGCC 140650Z AUTO 28008KT 9999 FEW017 SCT030 06/03 Q1018 NOSIG W (280°) 9.2mph 6°C 3°C
14/01/19 06:20 EGCC 140620Z AUTO 29008KT 9999 SCT016 BKN025 06/03 Q1018 NOSIG WNW (290°) 9.2mph 6°C 3°C
14/01/19 05:50 EGCC 140550Z AUTO 30009KT 9999 SCT017 BKN026 07/04 Q1018 NOSIG WNW (300°) 10.4mph 7°C 4°C
14/01/19 05:20 EGCC 140520Z AUTO 30010KT 9999 BKN019 BKN024 07/04 Q1018 NOSIG WNW (300°) 11.5mph 7°C 4°C
14/01/19 04:50 EGCC 140450Z AUTO 29007KT 9999 FEW019 SCT023 06/03 Q1018 NOSIG WNW (290°) 8.1mph 6°C 3°C
14/01/19 04:20 EGCC 140420Z AUTO 30007KT 9999 BKN016 06/03 Q1017 NOSIG WNW (300°) 8.1mph 6°C 3°C
14/01/19 03:50 EGCC 140350Z AUTO 29011KT 9999 BKN020 BKN030 07/04 Q1017 NOSIG WNW (290°) 12.7mph 7°C 4°C
14/01/19 02:50 EGCC 140250Z AUTO 30012KT 9999 BKN016 07/04 Q1016 NOSIG WNW (300°) 13.8mph 7°C 4°C
14/01/19 02:20 EGCC 140220Z AUTO 28014KT 9999 FEW018 SCT026 BKN034 07/04 Q1016 TEMPO SHRA W (280°) 16.1mph 7°C 4°C
14/01/19 01:20 EGCC 140120Z AUTO 30012KT 9999 FEW017 SCT022 BKN027 07/04 Q1015 TEMPO SHRA WNW (300°) 13.8mph 7°C 4°C
14/01/19 00:50 EGCC 140050Z AUTO 29017KT 9999 FEW019 SCT023 BKN028 07/04 Q1015 NOSIG WNW (290°) 19.6mph 7°C 4°C
14/01/19 00:20 EGCC 140020Z AUTO 29017KT 9999 -RA FEW017 SCT022 BKN028 07/04 Q1015 TEMPO SHRA -RA WNW (290°) 19.6mph 7°C 4°C
14/01/19 00:20 EGCC 140020Z AUTO 29017KT 9999 -RA FEW017 SCT022 BKN028 07/04 Q1015 -RA WNW (290°) 19.6mph 7°C 4°C
13/01/19 23:50 EGCC 132350Z AUTO 30013KT 9999 -RA SCT017/// BKN024/// BKN039/// //////TCU 07/04 Q1015 RESHRA TEMPO SHRA -RA WNW (300°) 15.0mph 7°C 4°C
13/01/19 23:20 EGCC 132320Z 29013KT 6000 SHRA SCT017TCU BKN023 BKN034 07/04 Q1015 TEMPO NSW SHRA WNW (290°) 15.0mph 7°C 4°C
13/01/19 22:50 EGCC 132250Z AUTO 30011KT 9000 -RA BKN017/// BKN022/// BKN029/// //////TCU 07/04 Q1014 TEMPO SHRA -RA WNW (300°) 12.7mph 7°C 4°C
13/01/19 21:50 EGCC 132150Z AUTO 30013KT 9999 SCT020/// BKN027/// BKN040/// //////TCU 07/04 Q1014 RERA TEMPO SHRA WNW (300°) 15.0mph 7°C 4°C
13/01/19 21:20 EGCC 132120Z AUTO 30016KT 9999 BKN026/// BKN031/// //////CB 08/03 Q1013 WNW (300°) 18.4mph 8°C 3°C
13/01/19 20:50 EGCC 132050Z AUTO 30020KT 9999 -RA SCT025/// BKN032/// BKN043/// //////TCU 08/03 Q1013 TEMPO SHRA -RA WNW (300°) 23.0mph 8°C 3°C
13/01/19 20:20 EGCC 132020Z 29016KT 9999 FEW024 BKN043 07/03 Q1013 TEMPO SHRA WNW (290°) 18.4mph 7°C 3°C
13/01/19 19:50 EGCC 131950Z 30019G29KT 9999 -RA FEW021 SCT028 BKN041 08/04 Q1012 TEMPO SHRA -RA WNW (300°) 21.9mph 33.4mph 8°C 4°C
13/01/19 19:20 EGCC 131920Z AUTO 30020KT 9999 SCT036/// BKN043/// //////CB 09/02 Q1012 TEMPO SHRA WNW (300°) 23.0mph 9°C 2°C
13/01/19 18:50 EGCC 131850Z AUTO 30017KT 9999 BKN038/// //////TCU 08/03 Q1012 TEMPO SHRA WNW (300°) 19.6mph 8°C 3°C
13/01/19 18:20 EGCC 131820Z AUTO 30016KT 9999 FEW029 BKN046 08/03 Q1012 TEMPO SHRA WNW (300°) 18.4mph 8°C 3°C
13/01/19 17:50 EGCC 131750Z 30016KT 9999 FEW021 SCT035 08/03 Q1011 WNW (300°) 18.4mph 8°C 3°C
13/01/19 17:20 EGCC 131720Z 30015KT 9999 FEW045 08/03 Q1011 TEMPO SHRA WNW (300°) 17.3mph 8°C 3°C
13/01/19 16:20 EGCC 131620Z 30015KT 9999 -RA FEW011 FEW018CB SCT037 09/05 Q1011 TEMPO SHRA -RA WNW (300°) 17.3mph 9°C 5°C
13/01/19 15:50 EGCC 131550Z 29018G29KT 9999 VCSH SCT018 SCT032 09/05 Q1011 RESHRA TEMPO SHRA VCSH WNW (290°) 20.7mph 33.4mph 9°C 5°C
13/01/19 15:20 EGCC 131520Z 30020G33KT 9999 5000E SHRA SCT010 SCT016 BKN025 09/07 Q1010 TEMPO BKN010 SHRA WNW (300°) 23.0mph 38.0mph 9°C 7°C
13/01/19 14:50 EGCC 131450Z 28019KT 9999 4500N -RA SCT014 BKN020 10/07 Q1010 TEMPO SHRE BKN014 -RA W (280°) 21.9mph 10°C 7°C
13/01/19 14:20 EGCC 131420Z AUTO 27020G33KT 9999 -RA BKN012/// BKN017/// //////TCU 10/07 Q1010 TEMPO SHRA SCT020 -RA W (270°) 23.0mph 38.0mph 10°C 7°C
13/01/19 13:50 EGCC 131350Z AUTO 28023KT 240V300 9999 -RA BKN012/// OVC041/// //////TCU 10/07 Q1010 TEMPO SHRA SCT016 -RA W (280°) 26.5mph 10°C 7°C
13/01/19 13:20 EGCC 131320Z AUTO 28020G30KT 9999 BKN013 10/07 Q1011 TEMPO SHRA SCT016 W (280°) 23.0mph 34.5mph 10°C 7°C
13/01/19 12:50 EGCC 131250Z 28022G35KT 9999 BKN012 10/07 Q1011 TEMPO SHRA SCT016 W (280°) 25.3mph 40.3mph 10°C 7°C
13/01/19 12:20 EGCC 131220Z 29021KT 240V310 9999 BKN011 10/07 Q1011 TEMPO SHRA SCT016 WNW (290°) 24.2mph 10°C 7°C
13/01/19 11:20 EGCC 131120Z AUTO 28018G30KT 9999 OVC009 10/07 Q1011 BECMG SCT020 W (280°) 20.7mph 34.5mph 10°C 7°C
13/01/19 10:50 EGCC 131050Z AUTO 28019G30KT 9999 OVC009 09/07 Q1012 BECMG SCT020 W (280°) 21.9mph 34.5mph 9°C 7°C
13/01/19 10:20 EGCC 131020Z 27018KT 9999 7000SE -RA BKN007 09/07 Q1012 TEMPO 4000 RADZ -RA W (270°) 20.7mph 9°C 7°C
13/01/19 09:50 EGCC 130950Z 28021KT 4900 -RADZ BKN009 09/07 Q1012 TEMPO RADZ -RA -DZ W (280°) 24.2mph 9°C 7°C
13/01/19 09:20 EGCC 130920Z 28019G29KT 9999 4600NE -RADZ BKN010 09/07 Q1012 -RA DZ W (280°) 21.9mph 33.4mph 9°C 7°C
13/01/19 08:50 EGCC 130850Z AUTO 27018KT 9999 OVC011 09/06 Q1012 W (270°) 20.7mph 9°C 6°C
13/01/19 08:20 EGCC 130820Z AUTO 27017G27KT 220V290 9999 OVC010 09/06 Q1012 TEMPO 4000 RADZ BKN008 W (270°) 19.6mph 31.1mph 9°C 6°C
13/01/19 07:50 EGCC 130750Z 28017KT 8000 -RADZ BKN009 08/06 Q1013 RERA REDZ -RA -DZ W (280°) 19.6mph 8°C 6°C
13/01/19 07:20 EGCC 130720Z 27017KT 5000 RADZ BKN009 09/06 Q1013 REDZ TEMPO 4000 RADZ RA DZ W (270°) 19.6mph 9°C 6°C
13/01/19 06:50 EGCC 130650Z 27015KT 8000 -RADZ BKN012 09/06 Q1013 NOSIG -RA -DZ W (270°) 17.3mph 9°C 6°C
13/01/19 06:20 EGCC 130620Z AUTO 26015KT 9999 OVC012 09/06 Q1014 NOSIG W (260°) 17.3mph 9°C 6°C
13/01/19 05:20 EGCC 130520Z AUTO 27015G25KT 9999 OVC012 09/06 Q1014 W (270°) 17.3mph 28.8mph 9°C 6°C
13/01/19 04:50 EGCC 130450Z 27018KT 200V280 9999 BKN012 09/06 Q1015 W (270°) 20.7mph 9°C 6°C
13/01/19 03:50 EGCC 130350Z 27016KT 240V300 9999 BKN013 09/06 Q1016 W (270°) 18.4mph 9°C 6°C
13/01/19 03:20 EGCC 130320Z 27020KT 220V290 9999 BKN013 10/06 Q1016 W (270°) 23.0mph 10°C 6°C
13/01/19 02:50 EGCC 130250Z AUTO 27019KT 9999 BKN013 OVC021 10/07 Q1016 W (270°) 21.9mph 10°C 7°C
13/01/19 02:20 EGCC 130220Z AUTO 28018KT 9999 BKN013 OVC020 10/07 Q1017 W (280°) 20.7mph 10°C 7°C
13/01/19 01:50 EGCC 130150Z AUTO 27013KT 9999 OVC011 10/07 Q1017 NOSIG W (270°) 15.0mph 10°C 7°C
13/01/19 01:20 EGCC 130120Z AUTO 28011G21KT 9999 OVC011 10/07 Q1017 NOSIG W (280°) 12.7mph 24.2mph 10°C 7°C
13/01/19 00:50 EGCC 130050Z AUTO 28015KT 9999 OVC011 10/07 Q1017 NOSIG W (280°) 17.3mph 10°C 7°C
13/01/19 00:20 EGCC 130020Z AUTO 28016KT 9999 OVC011 10/07 Q1017 W (280°) 18.4mph 10°C 7°C
12/01/19 23:50 EGCC 122350Z AUTO 28014G25KT 9999 OVC011 10/07 Q1018 NOSIG W (280°) 16.1mph 28.8mph 10°C 7°C
12/01/19 22:50 EGCC 122250Z AUTO 28015G26KT 9999 OVC013 10/07 Q1018 NOSIG W (280°) 17.3mph 29.9mph 10°C 7°C